Terminal Aerodrome Forecast
Issued by NWS

Home | Current Version | Previous Version | Text Only | Print | Product List | Glossary On
Versions: 1 2 3 4 5 6 7 8 9 10 11 12 13 14
622
FTUS46 KMTR 222334
TAFOAK
TAF
KOAK 222334Z 2300/2406 29014KT P6SM SKC
     FM230300 28008KT P6SM SKC
     FM230900 31004KT P6SM SCT008
     FM231700 30006KT P6SM FEW008
     FM232000 29014KT P6SM FEW010
     FM240300 28008KT P6SM SCT008=

USA.gov is the U.S. government's official web portal to all federal, state and local government web resources and services.